createdAt,value
2023-03-14T00:02:08.026Z,67.33
2023-03-14T00:04:34.961Z,65.55
2023-03-14T00:07:01.942Z,64.78
2023-03-14T00:09:30.748Z,64.16
2023-03-14T00:11:58.351Z,64.49
2023-03-14T00:14:25.273Z,63.85
2023-03-14T00:16:52.329Z,64.59
2023-03-14T00:19:19.241Z,65.93
2023-03-14T00:21:46.108Z,66.86
2023-03-14T00:24:13.180Z,67.58
2023-03-14T00:26:40.091Z,68.23
2023-03-14T00:29:08.306Z,68.70
2023-03-14T00:31:37.025Z,70.18
2023-03-14T00:34:04.070Z,70.20
2023-03-14T00:36:32.795Z,69.43
2023-03-14T00:38:59.795Z,69.96
2023-03-14T00:41:26.754Z,70.11
2023-03-14T00:43:53.639Z,70.43
2023-03-14T00:46:20.741Z,70.90
2023-03-14T00:48:48.139Z,71.50
2023-03-14T00:51:16.130Z,71.99
2023-03-14T00:53:45.023Z,71.99
2023-03-14T00:56:14.148Z,72.19
2023-03-14T00:58:41.436Z,71.94
2023-03-14T01:01:18.665Z,71.97
2023-03-14T01:03:46.823Z,72.07
2023-03-14T01:06:19.713Z,72.86
2023-03-14T01:08:47.876Z,73.44
2023-03-14T01:11:24.490Z,73.19
2023-03-14T01:13:52.151Z,72.92
2023-03-14T01:16:20.762Z,73.36
2023-03-14T01:18:48.345Z,73.60
2023-03-14T01:21:26.372Z,73.75
2023-03-14T01:23:54.876Z,73.51
2023-03-14T01:26:24.141Z,73.67
2023-03-14T01:28:53.509Z,74.13
2023-03-14T01:31:20.397Z,74.41
2023-03-14T01:33:47.861Z,74.32
2023-03-14T01:36:15.447Z,74.53
2023-03-14T01:38:44.056Z,74.71
2023-03-14T01:41:16.973Z,74.49
2023-03-14T01:43:45.374Z,74.36
2023-03-14T01:46:23.389Z,74.25
2023-03-14T01:48:59.978Z,73.96
2023-03-14T01:51:29.823Z,74.65
2023-03-14T01:54:07.800Z,74.18
2023-03-14T01:56:36.948Z,74.16
2023-03-14T01:59:07.393Z,74.65
2023-03-14T02:01:35.744Z,74.91
2023-03-14T02:04:06.554Z,75.09
2023-03-14T02:06:45.806Z,74.60
2023-03-14T02:09:13.922Z,74.90
2023-03-14T02:11:40.978Z,75.25
2023-03-14T02:14:38.846Z,75.72
2023-03-14T02:17:39.138Z,75.48
2023-03-14T02:20:26.334Z,75.84
2023-03-14T02:22:56.779Z,76.16
2023-03-14T02:25:46.668Z,76.36
2023-03-14T02:28:14.405Z,76.83
2023-03-14T02:30:43.467Z,77.40
2023-03-14T02:33:20.160Z,77.52
2023-03-14T02:36:05.362Z,78.02
2023-03-14T02:38:37.939Z,78.31
2023-03-14T02:41:06.653Z,78.51
2023-03-14T02:43:39.474Z,78.23
2023-03-14T02:46:17.700Z,78.30
2023-03-14T02:48:55.794Z,78.39
2023-03-14T02:51:24.956Z,78.74
2023-03-14T02:53:51.949Z,78.83
2023-03-14T02:56:20.116Z,78.19
2023-03-14T02:58:47.521Z,77.86
2023-03-14T03:01:36.868Z,77.85
2023-03-14T03:04:04.174Z,78.01
2023-03-14T03:06:31.027Z,78.13
2023-03-14T03:08:58.092Z,78.00
2023-03-14T03:11:25.022Z,77.59
2023-03-14T03:13:52.181Z,77.47
2023-03-14T03:16:19.527Z,77.69
2023-03-14T03:18:46.605Z,77.78
2023-03-14T03:21:13.577Z,77.99
2023-03-14T03:23:43.650Z,77.88
2023-03-14T03:26:11.798Z,77.52
2023-03-14T03:28:38.673Z,77.52
2023-03-14T03:31:11.444Z,77.71
2023-03-14T03:33:40.084Z,77.71
2023-03-14T03:36:09.455Z,77.76
2023-03-14T03:38:39.323Z,78.14
2023-03-14T03:41:08.116Z,78.48
2023-03-14T03:43:35.726Z,78.99
2023-03-14T03:46:06.155Z,78.88
2023-03-14T03:48:33.984Z,78.92
2023-03-14T03:51:04.187Z,79.10
2023-03-14T03:53:33.987Z,79.10
2023-03-14T03:56:05.452Z,79.47
2023-03-14T03:58:34.182Z,79.36
2023-03-14T04:01:01.194Z,79.04
2023-03-14T04:03:30.188Z,79.24
2023-03-14T04:06:06.750Z,79.25
2023-03-14T04:08:36.219Z,79.29
2023-03-14T04:11:03.909Z,79.36
2023-03-14T04:13:54.070Z,79.40
2023-03-14T04:16:26.417Z,79.55
2023-03-14T04:19:00.519Z,79.91
2023-03-14T04:21:27.785Z,79.96
2023-03-14T04:23:57.484Z,80.31
2023-03-14T04:26:26.584Z,80.05
2023-03-14T04:28:54.017Z,80.22
2023-03-14T04:31:22.818Z,80.04
2023-03-14T04:33:50.903Z,80.18
2023-03-14T04:36:23.992Z,79.81
2023-03-14T04:38:51.152Z,79.90
2023-03-14T04:41:21.145Z,79.89
2023-03-14T04:43:48.520Z,80.11
2023-03-14T04:46:15.694Z,79.97
2023-03-14T04:48:43.714Z,80.17
2023-03-14T04:51:10.875Z,79.77
2023-03-14T04:53:38.250Z,80.02
2023-03-14T04:56:09.990Z,80.25
2023-03-14T04:58:39.286Z,80.20
2023-03-14T05:01:07.677Z,79.87
2023-03-14T05:03:58.749Z,79.82
2023-03-14T05:07:04.322Z,79.59
2023-03-14T05:09:57.369Z,79.75
2023-03-14T05:12:54.840Z,79.92
2023-03-14T05:15:40.434Z,80.07
2023-03-14T05:18:33.752Z,79.74
2023-03-14T05:21:10.959Z,79.44
2023-03-14T05:24:06.301Z,79.28
2023-03-14T05:26:50.707Z,78.35
2023-03-14T05:29:29.853Z,77.71
2023-03-14T05:32:07.593Z,77.05
2023-03-14T05:34:53.066Z,76.35
2023-03-14T05:37:38.910Z,75.36
2023-03-14T05:40:24.502Z,75.00
2023-03-14T05:43:01.509Z,74.22
2023-03-14T05:45:51.522Z,74.21
2023-03-14T05:48:41.631Z,74.07
2023-03-14T05:51:27.486Z,72.48
2023-03-14T05:53:57.212Z,71.58
2023-03-14T05:56:42.931Z,70.48
2023-03-14T05:59:16.761Z,70.12
2023-03-14T06:02:04.245Z,70.01
2023-03-14T06:04:41.653Z,69.13
2023-03-14T06:07:09.119Z,69.14
2023-03-14T06:09:36.236Z,69.21
2023-03-14T06:12:04.220Z,68.68
2023-03-14T06:14:36.985Z,67.76
2023-03-14T06:17:04.031Z,67.67
2023-03-14T06:19:37.577Z,68.39
2023-03-14T06:22:04.585Z,68.81
2023-03-14T06:24:34.240Z,68.49
2023-03-14T06:27:03.551Z,68.27
2023-03-14T06:29:31.103Z,66.82
2023-03-14T06:31:58.122Z,66.89
2023-03-14T06:34:24.986Z,67.50
2023-03-14T06:36:51.968Z,67.31
2023-03-14T06:39:19.052Z,66.92
2023-03-14T06:41:50.395Z,67.27
2023-03-14T06:44:18.360Z,67.53
2023-03-14T06:46:45.368Z,67.18
2023-03-14T06:49:12.826Z,66.54
2023-03-14T06:51:39.974Z,64.64
2023-03-14T06:54:09.330Z,62.98
2023-03-14T06:56:36.648Z,62.60
2023-03-14T06:59:03.752Z,62.92
2023-03-14T07:01:36.301Z,63.48
2023-03-14T07:04:11.084Z,62.12
2023-03-14T07:06:45.295Z,62.06
2023-03-14T07:09:13.447Z,61.34
2023-03-14T07:11:45.322Z,61.31
2023-03-14T07:14:12.243Z,60.48
2023-03-14T07:16:39.599Z,61.22
2023-03-14T07:19:08.291Z,61.02
2023-03-14T07:21:35.855Z,61.51
2023-03-14T07:24:07.947Z,61.86
2023-03-14T07:26:35.194Z,60.65
2023-03-14T07:29:04.333Z,61.16
2023-03-14T07:31:32.673Z,59.60
2023-03-14T07:34:00.218Z,59.91
2023-03-14T07:36:31.773Z,58.87
2023-03-14T07:38:59.480Z,58.72
2023-03-14T07:41:34.171Z,60.14
2023-03-14T07:44:33.136Z,58.04
2023-03-14T07:47:00.330Z,58.65
2023-03-14T07:49:27.321Z,58.10
2023-03-14T07:51:54.395Z,58.22
2023-03-14T07:54:21.402Z,58.81
2023-03-14T07:56:49.460Z,59.11
2023-03-14T07:59:16.519Z,58.69
2023-03-14T08:01:43.979Z,58.21
2023-03-14T08:04:11.408Z,58.41
2023-03-14T08:06:38.701Z,56.87
2023-03-14T08:09:05.730Z,55.80
2023-03-14T08:11:32.662Z,54.78
2023-03-14T08:13:59.684Z,56.21
2023-03-14T08:16:26.767Z,55.61
2023-03-14T08:18:53.752Z,54.82
2023-03-14T08:21:20.630Z,55.55
2023-03-14T08:23:47.714Z,53.40
2023-03-14T08:26:14.578Z,54.12
2023-03-14T08:28:41.566Z,53.76
2023-03-14T08:31:08.584Z,53.43
2023-03-14T08:33:35.685Z,51.59
2023-03-14T08:36:02.890Z,51.65
2023-03-14T08:38:30.164Z,51.75
2023-03-14T08:41:00.950Z,50.67
2023-03-14T08:43:29.802Z,49.13
2023-03-14T08:46:01.124Z,49.54
2023-03-14T08:48:28.469Z,49.69
2023-03-14T08:50:55.357Z,48.51
2023-03-14T08:53:23.540Z,50.30
2023-03-14T08:55:55.449Z,49.71
2023-03-14T08:58:24.772Z,48.16
2023-03-14T09:00:51.763Z,48.45
2023-03-14T09:03:18.881Z,48.98
2023-03-14T09:05:45.983Z,48.72
2023-03-14T09:08:13.110Z,48.11
2023-03-14T09:10:40.099Z,46.70
2023-03-14T09:13:07.025Z,46.51
2023-03-14T09:15:34.144Z,45.31
2023-03-14T09:18:01.184Z,45.39
2023-03-14T09:20:28.611Z,44.35
2023-03-14T09:22:55.632Z,43.61
2023-03-14T09:25:22.691Z,44.97
2023-03-14T09:27:49.538Z,44.94
2023-03-14T09:30:16.527Z,43.38
2023-03-14T09:32:43.444Z,43.83
2023-03-14T09:35:10.945Z,45.72
2023-03-14T09:37:38.056Z,43.99
2023-03-14T09:40:11.301Z,45.80
2023-03-14T09:42:40.418Z,42.84
2023-03-14T09:45:14.021Z,42.65
2023-03-14T09:47:52.628Z,41.53
2023-03-14T09:50:26.818Z,41.62
2023-03-14T09:53:00.599Z,40.44
2023-03-14T09:55:27.770Z,38.35
2023-03-14T09:58:03.212Z,40.66
2023-03-14T10:00:32.808Z,41.07
2023-03-14T10:03:15.156Z,41.16
2023-03-14T10:05:43.020Z,40.56
2023-03-14T10:08:14.583Z,41.25
2023-03-14T10:10:42.044Z,39.24
2023-03-14T10:13:27.156Z,40.10
2023-03-14T10:15:54.232Z,37.21
2023-03-14T10:18:23.493Z,37.67
2023-03-14T10:21:01.872Z,38.22
2023-03-14T10:23:31.425Z,39.57
2023-03-14T10:26:14.989Z,38.91
2023-03-14T10:28:48.236Z,38.17
2023-03-14T10:31:16.453Z,38.04
2023-03-14T10:33:43.664Z,38.73
2023-03-14T10:36:24.688Z,40.17
2023-03-14T10:38:58.989Z,39.77
2023-03-14T10:41:34.551Z,39.70
2023-03-14T10:44:03.076Z,39.97
2023-03-14T10:46:33.390Z,38.37
2023-03-14T10:49:31.628Z,39.63
2023-03-14T10:52:31.330Z,40.63
2023-03-14T10:55:12.007Z,38.60
2023-03-14T10:57:41.524Z,39.57
2023-03-14T11:00:19.643Z,40.00
2023-03-14T11:03:05.229Z,40.66
2023-03-14T11:05:34.988Z,39.73
2023-03-14T11:08:26.142Z,41.75
2023-03-14T11:10:59.692Z,39.50
2023-03-14T11:13:36.883Z,40.09
2023-03-14T11:16:06.940Z,41.74
2023-03-14T11:18:52.366Z,39.19
2023-03-14T11:21:38.802Z,39.06
2023-03-14T11:24:43.519Z,39.33
2023-03-14T11:27:23.067Z,39.96
2023-03-14T11:30:05.983Z,39.00
2023-03-14T11:32:38.215Z,37.04
2023-03-14T11:35:17.796Z,39.14
2023-03-14T11:37:52.934Z,38.42
2023-03-14T11:40:23.184Z,38.79
2023-03-14T11:43:21.296Z,38.72
2023-03-14T11:45:51.509Z,38.82
2023-03-14T11:48:55.797Z,38.17
2023-03-14T11:51:40.312Z,39.97
2023-03-14T11:54:36.480Z,37.16
2023-03-14T11:57:13.645Z,36.98
2023-03-14T12:00:15.156Z,39.54
2023-03-14T12:02:49.813Z,37.51
2023-03-14T12:05:58.527Z,38.15
2023-03-14T12:08:46.061Z,37.02
2023-03-14T12:11:37.958Z,35.58
2023-03-14T12:14:23.633Z,37.49
2023-03-14T12:16:58.205Z,36.49
2023-03-14T12:19:25.299Z,36.32
2023-03-14T12:21:59.843Z,36.50
2023-03-14T12:24:32.969Z,37.81
2023-03-14T12:27:04.032Z,37.20
2023-03-14T12:29:32.218Z,36.15
2023-03-14T12:32:02.011Z,36.88
2023-03-14T12:34:31.905Z,36.12
2023-03-14T12:37:07.851Z,35.79
2023-03-14T12:39:46.847Z,36.64
2023-03-14T12:42:44.430Z,34.52
2023-03-14T12:45:26.941Z,35.37
2023-03-14T12:47:57.029Z,35.42
2023-03-14T12:50:43.676Z,37.75
2023-03-14T12:53:21.605Z,35.92
2023-03-14T12:56:18.085Z,35.05
2023-03-14T12:59:23.138Z,35.04
2023-03-14T13:02:08.671Z,35.25
2023-03-14T13:04:45.661Z,36.88
2023-03-14T13:07:34.409Z,34.78
2023-03-14T13:12:49.377Z,37.31
2023-03-14T13:15:20.993Z,35.43
2023-03-14T13:17:49.735Z,34.95
2023-03-14T13:20:30.505Z,33.31
2023-03-14T13:22:57.675Z,33.93
2023-03-14T13:25:24.976Z,36.81
2023-03-14T13:27:56.592Z,35.94
2023-03-14T13:30:29.801Z,33.89
2023-03-14T13:32:57.760Z,33.27
2023-03-14T13:35:28.661Z,36.85
2023-03-14T13:38:17.861Z,35.47
2023-03-14T13:40:46.270Z,32.11
2023-03-14T13:43:16.767Z,32.89
2023-03-14T13:45:51.385Z,33.00
2023-03-14T13:48:19.549Z,32.61
2023-03-14T13:50:57.341Z,33.77
2023-03-14T13:53:25.489Z,33.38
2023-03-14T13:55:53.546Z,34.90
2023-03-14T13:58:22.607Z,36.85
2023-03-14T14:01:15.849Z,32.45
2023-03-14T14:03:46.051Z,34.54
2023-03-14T14:06:39.053Z,36.48
2023-03-14T14:09:20.146Z,33.43
2023-03-14T14:12:15.067Z,35.71
2023-03-14T14:14:46.146Z,33.35
2023-03-14T14:17:17.733Z,34.84
2023-03-14T14:19:45.739Z,34.41
2023-03-14T14:22:13.407Z,33.34
2023-03-14T14:24:41.785Z,32.65
2023-03-14T14:27:16.286Z,33.87
2023-03-14T14:29:44.387Z,32.56
2023-03-14T14:32:16.548Z,33.73
2023-03-14T14:34:56.933Z,34.78
2023-03-14T14:37:28.034Z,32.80
2023-03-14T14:39:58.515Z,33.99
2023-03-14T14:42:29.278Z,34.06
2023-03-14T14:44:58.984Z,33.74
2023-03-14T14:47:28.759Z,34.54
2023-03-14T14:50:00.010Z,34.58
2023-03-14T14:52:47.356Z,35.94
2023-03-14T14:55:19.616Z,34.67
2023-03-14T14:57:55.158Z,33.43
2023-03-14T15:00:27.768Z,32.23
2023-03-14T15:02:59.552Z,35.95
2023-03-14T15:05:31.369Z,36.97
2023-03-14T15:07:58.769Z,33.27
2023-03-14T15:10:26.810Z,34.44
2023-03-14T15:12:54.348Z,37.06
2023-03-14T15:15:21.730Z,35.62
2023-03-14T15:17:48.776Z,34.07
2023-03-14T15:20:19.054Z,35.03
2023-03-14T15:22:47.552Z,35.41
2023-03-14T15:25:36.883Z,33.35
2023-03-14T15:28:01.762Z,34.39
2023-03-14T15:30:28.733Z,35.49
2023-03-14T15:32:55.764Z,32.96
2023-03-14T15:35:22.756Z,35.36
2023-03-14T15:37:50.005Z,33.24
2023-03-14T15:40:17.174Z,35.90
2023-03-14T15:42:44.176Z,34.39
2023-03-14T15:45:11.536Z,34.81
2023-03-14T15:47:38.616Z,35.01
2023-03-14T15:50:06.032Z,37.51
2023-03-14T15:52:33.237Z,37.18
2023-03-14T15:55:01.130Z,36.14
2023-03-14T15:57:28.093Z,35.51
2023-03-14T15:59:55.952Z,35.15
2023-03-14T16:02:22.977Z,36.55
2023-03-14T16:04:49.964Z,36.48
2023-03-14T16:07:17.492Z,37.33
2023-03-14T16:09:44.421Z,38.19
2023-03-14T16:12:11.303Z,38.69
2023-03-14T16:14:43.583Z,38.63
2023-03-14T16:17:11.947Z,37.77
2023-03-14T16:19:38.849Z,37.70
2023-03-14T16:22:06.035Z,38.33
2023-03-14T16:24:33.228Z,38.20
2023-03-14T16:27:00.360Z,41.26
2023-03-14T16:29:27.402Z,40.37
2023-03-14T16:31:54.411Z,39.53
2023-03-14T16:34:21.507Z,39.34
2023-03-14T16:36:48.492Z,41.02
2023-03-14T16:39:15.813Z,41.06
2023-03-14T16:41:42.832Z,41.30
2023-03-14T16:44:09.737Z,43.14
2023-03-14T16:46:37.743Z,40.83
2023-03-14T16:49:05.544Z,39.45
2023-03-14T16:51:32.709Z,39.83
2023-03-14T16:53:59.832Z,40.76
2023-03-14T16:56:27.001Z,41.80
2023-03-14T16:58:53.971Z,43.31
2023-03-14T17:01:21.447Z,42.78
2023-03-14T17:03:50.375Z,44.26
2023-03-14T17:06:26.118Z,43.36
2023-03-14T17:08:55.186Z,43.27
2023-03-14T17:11:24.045Z,44.34
2023-03-14T17:13:51.276Z,42.91
2023-03-14T17:16:19.790Z,41.70
2023-03-14T17:18:47.159Z,43.13
2023-03-14T17:21:14.205Z,42.38
2023-03-14T17:23:41.620Z,44.07
2023-03-14T17:26:10.282Z,46.44
2023-03-14T17:28:37.399Z,44.80
2023-03-14T17:31:06.590Z,46.85
2023-03-14T17:33:34.251Z,43.70
2023-03-14T17:36:01.491Z,45.59
2023-03-14T17:38:28.790Z,44.35
2023-03-14T17:40:55.859Z,45.44
2023-03-14T17:43:23.382Z,46.12
2023-03-14T17:45:58.058Z,46.47
2023-03-14T17:48:25.223Z,45.52
2023-03-14T17:50:52.970Z,45.92
2023-03-14T17:53:20.575Z,44.50
2023-03-14T17:55:49.677Z,47.48
2023-03-14T17:58:16.931Z,46.07
2023-03-14T18:00:44.169Z,45.89
2023-03-14T18:03:11.950Z,45.13
2023-03-14T18:05:42.100Z,47.19
2023-03-14T18:08:13.382Z,45.50
2023-03-14T18:10:40.640Z,46.27
2023-03-14T18:13:07.838Z,45.12
2023-03-14T18:15:34.823Z,43.16
2023-03-14T18:18:02.172Z,44.29
2023-03-14T18:20:30.336Z,45.79
2023-03-14T18:22:57.525Z,44.46
2023-03-14T18:25:24.504Z,46.98
2023-03-14T18:27:51.509Z,48.15
2023-03-14T18:30:20.475Z,45.27
2023-03-14T18:32:47.538Z,44.93
2023-03-14T18:35:14.658Z,47.09
2023-03-14T18:37:42.066Z,46.74
2023-03-14T18:40:13.710Z,46.17
2023-03-14T18:42:41.308Z,45.91
2023-03-14T18:45:09.181Z,46.86
2023-03-14T18:47:36.871Z,45.00
2023-03-14T18:50:06.359Z,46.05
2023-03-14T18:52:33.633Z,45.55
2023-03-14T18:55:00.564Z,45.73
2023-03-14T18:57:27.815Z,45.73
2023-03-14T18:59:56.723Z,45.82
2023-03-14T19:02:25.462Z,45.58
2023-03-14T19:04:53.365Z,46.66
2023-03-14T19:07:23.856Z,45.19
2023-03-14T19:09:51.926Z,46.09
2023-03-14T19:12:19.152Z,44.83
2023-03-14T19:14:46.467Z,47.01
2023-03-14T19:17:13.753Z,45.80
2023-03-14T19:19:40.648Z,44.60
2023-03-14T19:22:07.804Z,46.03
2023-03-14T19:24:35.235Z,45.17
2023-03-14T19:27:02.401Z,44.80
2023-03-14T19:29:29.295Z,47.10
2023-03-14T19:31:56.978Z,45.91
2023-03-14T19:34:24.004Z,46.77
2023-03-14T19:36:51.088Z,48.37
2023-03-14T19:39:19.079Z,46.24
2023-03-14T19:41:46.122Z,46.92
2023-03-14T19:44:13.553Z,49.08
2023-03-14T19:46:41.735Z,48.78
2023-03-14T19:49:08.783Z,48.61
2023-03-14T19:51:35.854Z,49.68
2023-03-14T19:54:05.004Z,49.81
2023-03-14T19:56:33.272Z,49.28
2023-03-14T19:59:03.202Z,49.59
2023-03-14T20:01:31.715Z,50.78
2023-03-14T20:03:58.683Z,50.68
2023-03-14T20:06:25.818Z,50.48
2023-03-14T20:08:52.744Z,51.29
2023-03-14T20:11:20.124Z,51.64
2023-03-14T20:13:47.481Z,51.03
2023-03-14T20:16:36.014Z,51.60
2023-03-14T20:19:42.050Z,51.30
2023-03-14T20:22:09.211Z,51.00
2023-03-14T20:24:36.136Z,51.54
2023-03-14T20:27:03.164Z,51.06
2023-03-14T20:29:30.075Z,50.88
2023-03-14T20:31:57.116Z,51.34
2023-03-14T20:34:24.067Z,51.57
2023-03-14T20:36:53.147Z,52.14
2023-03-14T20:39:20.219Z,51.76
2023-03-14T20:41:47.142Z,51.49
2023-03-14T20:44:14.444Z,51.40
2023-03-14T20:46:41.497Z,51.49
2023-03-14T20:49:08.388Z,52.71
2023-03-14T20:51:35.801Z,52.29
2023-03-14T20:54:02.933Z,53.23
2023-03-14T20:56:29.874Z,53.06
2023-03-14T20:58:57.272Z,53.83
2023-03-14T21:01:24.487Z,52.18
2023-03-14T21:19:41.139Z,56.15
2023-03-14T21:22:08.346Z,57.25
2023-03-14T21:24:35.412Z,56.26
2023-03-14T21:27:02.544Z,56.13
2023-03-14T21:29:29.661Z,56.95
2023-03-14T21:31:56.739Z,57.02
2023-03-14T21:34:27.013Z,57.27
2023-03-14T21:36:55.651Z,56.92
2023-03-14T21:39:22.967Z,57.55
2023-03-14T21:41:49.935Z,57.15
2023-03-14T21:44:19.088Z,58.10
2023-03-14T21:46:46.591Z,57.48
2023-03-14T21:49:15.058Z,58.30
2023-03-14T21:51:45.887Z,59.03
2023-03-14T21:54:17.058Z,58.63
2023-03-14T21:56:46.328Z,59.50
2023-03-14T21:59:14.494Z,58.77
2023-03-14T22:01:42.284Z,59.80
2023-03-14T22:04:09.407Z,60.75
2023-03-14T22:06:36.508Z,59.68
2023-03-14T22:09:03.605Z,59.13
2023-03-14T22:11:30.543Z,60.05
2023-03-14T22:13:57.574Z,59.37
2023-03-14T22:16:24.587Z,59.79
2023-03-14T22:18:51.428Z,59.25
2023-03-14T22:21:18.493Z,59.49
2023-03-14T22:23:45.361Z,59.81
2023-03-14T22:26:12.303Z,59.63
2023-03-14T22:28:39.873Z,58.68
2023-03-14T22:31:06.845Z,59.54
2023-03-14T22:33:33.875Z,58.56
2023-03-14T22:36:00.861Z,58.35
2023-03-14T22:38:27.904Z,58.27
2023-03-14T22:41:01.275Z,58.88
2023-03-14T22:43:29.998Z,55.96
2023-03-14T22:46:04.693Z,55.67
2023-03-14T22:48:32.762Z,53.93
2023-03-14T22:51:00.397Z,55.65
2023-03-14T22:53:27.281Z,55.86
2023-03-14T22:56:02.709Z,54.59
2023-03-14T22:58:29.953Z,53.90
2023-03-14T23:00:56.985Z,53.66
2023-03-14T23:03:23.961Z,53.93
2023-03-14T23:05:50.945Z,54.15
2023-03-14T23:08:17.905Z,54.81
2023-03-14T23:10:45.304Z,54.89
2023-03-14T23:13:15.489Z,55.92
2023-03-14T23:15:44.498Z,56.15
2023-03-14T23:18:13.904Z,55.05
2023-03-14T23:20:43.248Z,54.70
2023-03-14T23:23:13.745Z,54.27
2023-03-14T23:25:52.935Z,56.28
2023-03-14T23:28:23.101Z,57.39
2023-03-14T23:30:55.562Z,55.34
2023-03-14T23:33:24.291Z,54.89
2023-03-14T23:35:51.636Z,55.67
2023-03-14T23:38:18.561Z,56.21
2023-03-14T23:40:45.450Z,57.14
2023-03-14T23:43:12.574Z,56.87
2023-03-14T23:45:39.564Z,57.04
2023-03-14T23:48:06.686Z,56.12
2023-03-14T23:50:36.734Z,56.60
2023-03-14T23:53:04.001Z,56.66
2023-03-14T23:55:30.994Z,58.94
2023-03-14T23:57:57.906Z,58.10
